sensor_id;sensor_type;location;lat;lon;timestamp;pressure;altitude;pressure_sealevel;temperature;humidity
48041;BME280;33815;48.386;11.738;2022-09-13T00:00:57;96339.53;;;8.87;100.00
48041;BME280;33815;48.386;11.738;2022-09-13T00:03:23;96343.38;;;8.83;100.00
48041;BME280;33815;48.386;11.738;2022-09-13T00:05:50;96328.66;;;8.73;100.00
48041;BME280;33815;48.386;11.738;2022-09-13T00:08:15;96341.50;;;8.75;100.00
48041;BME280;33815;48.386;11.738;2022-09-13T00:10:42;96342.63;;;8.72;100.00
48041;BME280;33815;48.386;11.738;2022-09-13T00:13:09;96337.69;;;8.69;100.00
48041;BME280;33815;48.386;11.738;2022-09-13T00:15:35;96321.75;;;8.64;100.00
48041;BME280;33815;48.386;11.738;2022-09-13T00:18:01;96313.78;;;8.66;100.00
48041;BME280;33815;48.386;11.738;2022-09-13T00:20:26;96297.16;;;8.59;100.00
48041;BME280;33815;48.386;11.738;2022-09-13T00:22:52;96303.56;;;8.64;100.00
48041;BME280;33815;48.386;11.738;2022-09-13T00:25:17;96274.88;;;8.56;100.00
48041;BME280;33815;48.386;11.738;2022-09-13T00:27:43;96289.06;;;8.62;100.00
48041;BME280;33815;48.386;11.738;2022-09-13T00:30:09;96280.06;;;8.56;100.00
48041;BME280;33815;48.386;11.738;2022-09-13T00:32:35;96271.59;;;8.44;100.00
48041;BME280;33815;48.386;11.738;2022-09-13T00:35:01;96289.91;;;8.52;100.00
48041;BME280;33815;48.386;11.738;2022-09-13T00:37:28;96279.03;;;8.49;100.00
48041;BME280;33815;48.386;11.738;2022-09-13T00:39:53;96280.78;;;8.48;100.00
48041;BME280;33815;48.386;11.738;2022-09-13T00:42:25;96276.94;;;8.43;100.00
48041;BME280;33815;48.386;11.738;2022-09-13T00:47:38;96284.59;;;8.44;100.00
48041;BME280;33815;48.386;11.738;2022-09-13T00:50:11;96294.19;;;8.44;100.00
48041;BME280;33815;48.386;11.738;2022-09-13T00:52:40;96276.34;;;8.31;100.00
48041;BME280;33815;48.386;11.738;2022-09-13T00:55:12;96300.47;;;8.41;100.00
48041;BME280;33815;48.386;11.738;2022-09-13T00:57:41;96286.44;;;8.34;100.00
48041;BME280;33815;48.386;11.738;2022-09-13T01:00:15;96295.41;;;8.39;100.00
48041;BME280;33815;48.386;11.738;2022-09-13T01:02:49;96264.44;;;8.28;100.00
48041;BME280;33815;48.386;11.738;2022-09-13T01:05:17;96277.53;;;8.36;100.00
48041;BME280;33815;48.386;11.738;2022-09-13T01:07:43;96262.47;;;8.40;100.00
48041;BME280;33815;48.386;11.738;2022-09-13T01:10:09;96245.72;;;8.24;100.00
48041;BME280;33815;48.386;11.738;2022-09-13T01:12:48;96265.22;;;8.38;100.00
48041;BME280;33815;48.386;11.738;2022-09-13T01:15:15;96265.81;;;8.32;100.00
48041;BME280;33815;48.386;11.738;2022-09-13T01:17:42;96261.06;;;8.28;100.00
48041;BME280;33815;48.386;11.738;2022-09-13T01:20:08;96257.91;;;8.24;100.00
48041;BME280;33815;48.386;11.738;2022-09-13T01:22:56;96248.47;;;8.23;100.00
48041;BME280;33815;48.386;11.738;2022-09-13T01:26:02;96238.28;;;8.12;100.00
48041;BME280;33815;48.386;11.738;2022-09-13T01:28:41;96259.97;;;8.20;100.00
48041;BME280;33815;48.386;11.738;2022-09-13T01:31:26;96254.25;;;8.17;100.00
48041;BME280;33815;48.386;11.738;2022-09-13T01:39:16;96234.03;;;8.11;100.00
48041;BME280;33815;48.386;11.738;2022-09-13T01:42:00;96246.47;;;8.17;100.00
48041;BME280;33815;48.386;11.738;2022-09-13T01:45:12;96247.13;;;8.19;100.00
48041;BME280;33815;48.386;11.738;2022-09-13T01:48:01;96250.72;;;8.18;100.00
48041;BME280;33815;48.386;11.738;2022-09-13T01:50:38;96240.06;;;8.11;100.00
48041;BME280;33815;48.386;11.738;2022-09-13T01:53:24;96246.47;;;8.17;100.00
48041;BME280;33815;48.386;11.738;2022-09-13T01:56:05;96238.00;;;8.15;100.00
48041;BME280;33815;48.386;11.738;2022-09-13T01:58:40;96242.81;;;8.10;100.00
48041;BME280;33815;48.386;11.738;2022-09-13T02:04:29;96254.72;;;8.02;100.00
48041;BME280;33815;48.386;11.738;2022-09-13T02:07:08;96238.75;;;7.97;100.00
48041;BME280;33815;48.386;11.738;2022-09-13T02:09:41;96236.69;;;8.01;100.00
48041;BME280;33815;48.386;11.738;2022-09-13T02:12:17;96238.19;;;8.03;100.00
48041;BME280;33815;48.386;11.738;2022-09-13T02:14:53;96221.84;;;7.93;100.00
48041;BME280;33815;48.386;11.738;2022-09-13T02:17:23;96236.06;;;7.89;100.00
48041;BME280;33815;48.386;11.738;2022-09-13T02:20:01;96240.16;;;7.82;100.00
48041;BME280;33815;48.386;11.738;2022-09-13T02:22:31;96228.03;;;7.72;100.00
48041;BME280;33815;48.386;11.738;2022-09-13T02:25:02;96236.50;;;7.75;100.00
48041;BME280;33815;48.386;11.738;2022-09-13T02:27:32;96237.75;;;7.70;100.00
48041;BME280;33815;48.386;11.738;2022-09-13T02:30:02;96246.59;;;7.78;100.00
48041;BME280;33815;48.386;11.738;2022-09-13T02:32:33;96240.78;;;7.66;100.00
48041;BME280;33815;48.386;11.738;2022-09-13T02:35:01;96263.25;;;7.75;100.00
48041;BME280;33815;48.386;11.738;2022-09-13T02:37:30;96261.91;;;7.71;100.00
48041;BME280;33815;48.386;11.738;2022-09-13T02:40:09;96247.44;;;7.59;100.00
48041;BME280;33815;48.386;11.738;2022-09-13T02:42:41;96238.59;;;7.61;100.00
48041;BME280;33815;48.386;11.738;2022-09-13T02:45:10;96242.53;;;7.65;100.00
48041;BME280;33815;48.386;11.738;2022-09-13T02:47:57;96258.34;;;7.72;100.00
48041;BME280;33815;48.386;11.738;2022-09-13T02:50:33;96247.88;;;7.64;100.00
48041;BME280;33815;48.386;11.738;2022-09-13T02:53:18;96237.94;;;7.49;100.00
48041;BME280;33815;48.386;11.738;2022-09-13T02:56:04;96245.72;;;7.49;100.00
48041;BME280;33815;48.386;11.738;2022-09-13T03:01:25;96250.50;;;7.44;100.00
48041;BME280;33815;48.386;11.738;2022-09-13T03:03:51;96252.41;;;7.42;100.00
48041;BME280;33815;48.386;11.738;2022-09-13T03:06:26;96259.63;;;7.48;100.00
48041;BME280;33815;48.386;11.738;2022-09-13T03:08:53;96241.50;;;7.38;100.00
48041;BME280;33815;48.386;11.738;2022-09-13T03:14:33;96240.94;;;7.35;100.00
48041;BME280;33815;48.386;11.738;2022-09-13T03:17:10;96249.28;;;7.38;100.00
48041;BME280;33815;48.386;11.738;2022-09-13T03:20:00;96246.00;;;7.36;100.00
48041;BME280;33815;48.386;11.738;2022-09-13T03:22:57;96238.75;;;7.30;100.00
48041;BME280;33815;48.386;11.738;2022-09-13T03:30:29;96241.91;;;7.24;100.00
48041;BME280;33815;48.386;11.738;2022-09-13T03:33:23;96244.38;;;7.26;100.00
48041;BME280;33815;48.386;11.738;2022-09-13T03:36:03;96231.69;;;7.23;100.00
48041;BME280;33815;48.386;11.738;2022-09-13T03:38:36;96231.41;;;7.26;100.00
48041;BME280;33815;48.386;11.738;2022-09-13T03:41:38;96234.16;;;7.24;100.00
48041;BME280;33815;48.386;11.738;2022-09-13T03:43:57;96213.81;;;7.10;100.00
48041;BME280;33815;48.386;11.738;2022-09-13T03:46:36;96226.75;;;7.19;100.00
48041;BME280;33815;48.386;11.738;2022-09-13T03:49:07;96220.63;;;7.11;100.00
48041;BME280;33815;48.386;11.738;2022-09-13T03:51:33;96217.50;;;7.17;100.00
48041;BME280;33815;48.386;11.738;2022-09-13T03:54:02;96224.31;;;7.18;100.00
48041;BME280;33815;48.386;11.738;2022-09-13T03:56:29;96215.06;;;7.06;100.00
48041;BME280;33815;48.386;11.738;2022-09-13T03:58:54;96217.66;;;7.15;100.00
48041;BME280;33815;48.386;11.738;2022-09-13T04:01:22;96218.75;;;7.13;100.00
48041;BME280;33815;48.386;11.738;2022-09-13T04:03:48;96217.53;;;7.07;100.00
48041;BME280;33815;48.386;11.738;2022-09-13T04:06:14;96217.91;;;7.02;100.00
48041;BME280;33815;48.386;11.738;2022-09-13T04:08:40;96229.25;;;7.01;100.00
48041;BME280;33815;48.386;11.738;2022-09-13T04:11:05;96218.75;;;6.93;100.00
48041;BME280;33815;48.386;11.738;2022-09-13T04:13:31;96236.31;;;6.90;100.00
48041;BME280;33815;48.386;11.738;2022-09-13T04:16:00;96244.38;;;6.96;100.00
48041;BME280;33815;48.386;11.738;2022-09-13T04:18:27;96242.06;;;6.93;100.00
48041;BME280;33815;48.386;11.738;2022-09-13T04:20:57;96249.13;;;6.91;100.00
48041;BME280;33815;48.386;11.738;2022-09-13T04:23:24;96240.41;;;6.92;100.00
48041;BME280;33815;48.386;11.738;2022-09-13T04:25:50;96230.72;;;6.84;100.00
48041;BME280;33815;48.386;11.738;2022-09-13T04:28:19;96251.34;;;6.86;100.00
48041;BME280;33815;48.386;11.738;2022-09-13T04:30:46;96247.63;;;6.79;100.00
48041;BME280;33815;48.386;11.738;2022-09-13T04:33:12;96248.03;;;6.74;100.00
48041;BME280;33815;48.386;11.738;2022-09-13T04:35:37;96240.94;;;6.66;100.00
48041;BME280;33815;48.386;11.738;2022-09-13T04:38:04;96256.38;;;6.78;100.00
48041;BME280;33815;48.386;11.738;2022-09-13T04:40:30;96240.69;;;6.69;100.00
48041;BME280;33815;48.386;11.738;2022-09-13T04:42:55;96257.44;;;6.75;100.00
48041;BME280;33815;48.386;11.738;2022-09-13T04:45:20;96256.66;;;6.75;100.00
48041;BME280;33815;48.386;11.738;2022-09-13T04:47:53;96255.38;;;6.69;100.00
48041;BME280;33815;48.386;11.738;2022-09-13T04:50:20;96255.66;;;6.66;100.00
48041;BME280;33815;48.386;11.738;2022-09-13T04:52:46;96257.72;;;6.62;100.00
48041;BME280;33815;48.386;11.738;2022-09-13T04:55:11;96251.03;;;6.69;100.00
48041;BME280;33815;48.386;11.738;2022-09-13T04:57:37;96247.50;;;6.71;100.00
48041;BME280;33815;48.386;11.738;2022-09-13T05:00:03;96250.09;;;6.71;100.00
48041;BME280;33815;48.386;11.738;2022-09-13T05:02:29;96259.63;;;6.70;100.00
48041;BME280;33815;48.386;11.738;2022-09-13T05:04:54;96265.63;;;6.71;100.00
48041;BME280;33815;48.386;11.738;2022-09-13T05:07:20;96265.75;;;6.69;100.00
48041;BME280;33815;48.386;11.738;2022-09-13T05:09:45;96257.44;;;6.75;100.00
48041;BME280;33815;48.386;11.738;2022-09-13T05:12:10;96256.38;;;6.78;100.00
48041;BME280;33815;48.386;11.738;2022-09-13T05:14:36;96250.50;;;6.76;100.00
48041;BME280;33815;48.386;11.738;2022-09-13T05:17:01;96250.34;;;6.77;100.00
48041;BME280;33815;48.386;11.738;2022-09-13T05:19:26;96248.84;;;6.84;100.00
48041;BME280;33815;48.386;11.738;2022-09-13T05:21:51;96247.38;;;6.92;100.00
48041;BME280;33815;48.386;11.738;2022-09-13T05:24:17;96249.97;;;7.01;100.00
48041;BME280;33815;48.386;11.738;2022-09-13T05:26:42;96251.59;;;7.02;100.00
48041;BME280;33815;48.386;11.738;2022-09-13T05:29:07;96262.53;;;7.06;100.00
48041;BME280;33815;48.386;11.738;2022-09-13T05:31:35;96263.31;;;7.07;100.00
48041;BME280;33815;48.386;11.738;2022-09-13T05:34:06;96273.56;;;7.08;100.00
48041;BME280;33815;48.386;11.738;2022-09-13T05:36:33;96264.03;;;7.09;100.00
48041;BME280;33815;48.386;11.738;2022-09-13T05:38:58;96265.38;;;7.13;100.00
48041;BME280;33815;48.386;11.738;2022-09-13T05:41:24;96273.03;;;7.24;100.00
48041;BME280;33815;48.386;11.738;2022-09-13T05:43:50;96256.91;;;7.20;100.00
48041;BME280;33815;48.386;11.738;2022-09-13T05:46:17;96265.63;;;7.39;100.00
48041;BME280;33815;48.386;11.738;2022-09-13T05:48:43;96257.59;;;7.32;100.00
48041;BME280;33815;48.386;11.738;2022-09-13T05:51:12;96262.09;;;7.40;100.00
48041;BME280;33815;48.386;11.738;2022-09-13T05:53:39;96261.41;;;7.48;100.00
48041;BME280;33815;48.386;11.738;2022-09-13T05:56:06;96254.13;;;7.61;100.00
48041;BME280;33815;48.386;11.738;2022-09-13T05:58:32;96258.78;;;7.67;100.00
48041;BME280;33815;48.386;11.738;2022-09-13T06:00:59;96236.28;;;7.58;100.00
48041;BME280;33815;48.386;11.738;2022-09-13T06:03:24;96239.28;;;7.63;100.00
48041;BME280;33815;48.386;11.738;2022-09-13T06:05:53;96239.25;;;7.73;100.00
48041;BME280;33815;48.386;11.738;2022-09-13T06:08:19;96238.38;;;7.82;100.00
48041;BME280;33815;48.386;11.738;2022-09-13T06:10:55;96238.09;;;7.85;100.00
48041;BME280;33815;48.386;11.738;2022-09-13T06:13:21;96250.63;;;8.00;100.00
48041;BME280;33815;48.386;11.738;2022-09-13T06:15:46;96261.91;;;8.18;100.00
48041;BME280;33815;48.386;11.738;2022-09-13T06:18:11;96264.56;;;8.36;100.00
48041;BME280;33815;48.386;11.738;2022-09-13T06:20:36;96242.25;;;8.44;100.00
48041;BME280;33815;48.386;11.738;2022-09-13T06:23:02;96247.75;;;8.68;100.00
48041;BME280;33815;48.386;11.738;2022-09-13T06:25:27;96253.53;;;8.80;100.00
48041;BME280;33815;48.386;11.738;2022-09-13T06:27:52;96255.19;;;8.99;100.00
48041;BME280;33815;48.386;11.738;2022-09-13T06:30:17;96240.63;;;9.06;100.00
48041;BME280;33815;48.386;11.738;2022-09-13T06:32:43;96258.53;;;9.28;100.00
48041;BME280;33815;48.386;11.738;2022-09-13T06:35:08;96253.50;;;9.52;100.00
48041;BME280;33815;48.386;11.738;2022-09-13T06:37:34;96250.34;;;9.67;100.00
48041;BME280;33815;48.386;11.738;2022-09-13T06:39:59;96241.34;;;9.79;100.00
48041;BME280;33815;48.386;11.738;2022-09-13T06:42:24;96223.13;;;9.87;100.00
48041;BME280;33815;48.386;11.738;2022-09-13T06:44:50;96197.19;;;10.04;100.00
48041;BME280;33815;48.386;11.738;2022-09-13T06:47:15;96216.28;;;10.21;100.00
48041;BME280;33815;48.386;11.738;2022-09-13T06:49:40;96213.38;;;10.24;100.00
48041;BME280;33815;48.386;11.738;2022-09-13T06:52:06;96224.38;;;10.36;100.00
48041;BME280;33815;48.386;11.738;2022-09-13T06:54:31;96219.84;;;10.46;100.00
48041;BME280;33815;48.386;11.738;2022-09-13T06:56:56;96231.47;;;10.68;100.00
48041;BME280;33815;48.386;11.738;2022-09-13T06:59:22;96237.53;;;10.85;100.00
48041;BME280;33815;48.386;11.738;2022-09-13T07:01:47;96231.84;;;10.98;100.00
48041;BME280;33815;48.386;11.738;2022-09-13T07:04:15;96249.50;;;11.21;100.00
48041;BME280;33815;48.386;11.738;2022-09-13T07:06:43;96249.16;;;11.32;100.00
48041;BME280;33815;48.386;11.738;2022-09-13T07:09:17;96256.97;;;11.48;100.00
48041;BME280;33815;48.386;11.738;2022-09-13T07:11:43;96261.19;;;11.82;100.00
48041;BME280;33815;48.386;11.738;2022-09-13T07:14:14;96255.31;;;12.05;100.00
48041;BME280;33815;48.386;11.738;2022-09-13T07:16:40;96254.44;;;12.21;100.00
48041;BME280;33815;48.386;11.738;2022-09-13T07:19:07;96236.28;;;12.28;100.00
48041;BME280;33815;48.386;11.738;2022-09-13T07:21:36;96246.97;;;12.49;100.00
48041;BME280;33815;48.386;11.738;2022-09-13T07:24:01;96249.47;;;12.74;100.00
48041;BME280;33815;48.386;11.738;2022-09-13T07:26:27;96244.56;;;13.26;100.00
48041;BME280;33815;48.386;11.738;2022-09-13T07:28:54;96247.34;;;13.70;100.00
48041;BME280;33815;48.386;11.738;2022-09-13T07:31:26;96248.19;;;14.16;100.00
48041;BME280;33815;48.386;11.738;2022-09-13T07:33:57;96253.84;;;14.64;100.00
48041;BME280;33815;48.386;11.738;2022-09-13T07:36:23;96253.94;;;14.71;100.00
48041;BME280;33815;48.386;11.738;2022-09-13T07:38:49;96256.66;;;14.78;100.00
48041;BME280;33815;48.386;11.738;2022-09-13T07:41:16;96257.34;;;14.86;100.00
48041;BME280;33815;48.386;11.738;2022-09-13T07:43:42;96252.38;;;15.13;100.00
48041;BME280;33815;48.386;11.738;2022-09-13T07:46:10;96249.84;;;15.48;100.00
48041;BME280;33815;48.386;11.738;2022-09-13T07:48:38;96252.09;;;15.51;100.00
48041;BME280;33815;48.386;11.738;2022-09-13T07:51:06;96251.38;;;15.57;100.00
48041;BME280;33815;48.386;11.738;2022-09-13T07:53:33;96251.16;;;15.81;100.00
48041;BME280;33815;48.386;11.738;2022-09-13T07:56:01;96257.69;;;15.91;100.00
48041;BME280;33815;48.386;11.738;2022-09-13T07:58:26;96247.63;;;16.30;100.00
48041;BME280;33815;48.386;11.738;2022-09-13T08:00:52;96236.75;;;16.40;100.00
48041;BME280;33815;48.386;11.738;2022-09-13T08:03:17;96239.91;;;16.64;100.00
48041;BME280;33815;48.386;11.738;2022-09-13T08:05:42;96228.34;;;16.65;97.91
48041;BME280;33815;48.386;11.738;2022-09-13T08:08:08;96238.53;;;16.81;94.37
48041;BME280;33815;48.386;11.738;2022-09-13T08:10:33;96241.06;;;17.16;95.86
48041;BME280;33815;48.386;11.738;2022-09-13T08:12:59;96233.19;;;17.36;96.58
48041;BME280;33815;48.386;11.738;2022-09-13T08:15:25;96238.25;;;17.64;94.06
48041;BME280;33815;48.386;11.738;2022-09-13T08:17:50;96232.38;;;17.83;92.27
48041;BME280;33815;48.386;11.738;2022-09-13T08:20:15;96229.97;;;17.94;89.35
48041;BME280;33815;48.386;11.738;2022-09-13T08:22:40;96217.56;;;17.88;89.09
48041;BME280;33815;48.386;11.738;2022-09-13T08:25:06;96226.88;;;17.84;87.27
48041;BME280;33815;48.386;11.738;2022-09-13T08:27:31;96232.56;;;17.88;87.84
48041;BME280;33815;48.386;11.738;2022-09-13T08:29:56;96223.66;;;17.82;86.62
48041;BME280;33815;48.386;11.738;2022-09-13T08:32:22;96222.44;;;17.71;85.15
48041;BME280;33815;48.386;11.738;2022-09-13T08:34:47;96228.34;;;17.80;86.72
48041;BME280;33815;48.386;11.738;2022-09-13T08:37:12;96225.25;;;17.90;89.47
48041;BME280;33815;48.386;11.738;2022-09-13T08:39:37;96226.69;;;17.99;84.45
48041;BME280;33815;48.386;11.738;2022-09-13T08:44:51;96219.94;;;18.30;86.77
48041;BME280;33815;48.386;11.738;2022-09-13T08:50:10;96196.41;;;18.74;85.19
48041;BME280;33815;48.386;11.738;2022-09-13T08:56:05;96205.19;;;19.31;75.57
48041;BME280;33815;48.386;11.738;2022-09-13T09:03:56;96231.75;;;19.68;76.03
48041;BME280;33815;48.386;11.738;2022-09-13T09:06:26;96218.00;;;20.10;74.64
48041;BME280;33815;48.386;11.738;2022-09-13T09:09:14;96229.25;;;20.43;71.75
48041;BME280;33815;48.386;11.738;2022-09-13T09:11:45;96221.00;;;20.32;70.59
48041;BME280;33815;48.386;11.738;2022-09-13T09:14:24;96218.34;;;20.51;70.71
48041;BME280;33815;48.386;11.738;2022-09-13T09:16:54;96194.94;;;20.66;71.70
48041;BME280;33815;48.386;11.738;2022-09-13T09:19:27;96202.97;;;20.60;69.23
48041;BME280;33815;48.386;11.738;2022-09-13T09:21:58;96211.78;;;20.53;68.16
48041;BME280;33815;48.386;11.738;2022-09-13T09:24:25;96202.16;;;20.78;68.56
48041;BME280;33815;48.386;11.738;2022-09-13T09:26:56;96199.38;;;21.15;68.42
48041;BME280;33815;48.386;11.738;2022-09-13T09:29:25;96196.09;;;21.31;67.68
48041;BME280;33815;48.386;11.738;2022-09-13T09:39:47;96190.53;;;21.87;63.69
48041;BME280;33815;48.386;11.738;2022-09-13T09:42:15;96167.84;;;21.49;63.75
48041;BME280;33815;48.386;11.738;2022-09-13T09:44:45;96174.78;;;21.38;61.88
48041;BME280;33815;48.386;11.738;2022-09-13T09:47:25;96161.28;;;21.51;64.59
48041;BME280;33815;48.386;11.738;2022-09-13T09:49:58;96172.19;;;21.62;63.73
48041;BME280;33815;48.386;11.738;2022-09-13T09:58:00;96169.88;;;21.77;65.36
48041;BME280;33815;48.386;11.738;2022-09-13T10:00:52;96151.09;;;22.31;67.57
48041;BME280;33815;48.386;11.738;2022-09-13T10:03:35;96167.22;;;22.53;62.35
48041;BME280;33815;48.386;11.738;2022-09-13T10:06:10;96173.06;;;22.67;65.57
48041;BME280;33815;48.386;11.738;2022-09-13T10:08:40;96166.22;;;22.71;63.98
48041;BME280;33815;48.386;11.738;2022-09-13T10:11:06;96139.81;;;22.82;60.29
48041;BME280;33815;48.386;11.738;2022-09-13T10:13:32;96151.84;;;23.47;62.74
48041;BME280;33815;48.386;11.738;2022-09-13T10:16:04;96142.84;;;23.70;58.58
48041;BME280;33815;48.386;11.738;2022-09-13T10:18:32;96142.63;;;23.89;59.92
48041;BME280;33815;48.386;11.738;2022-09-13T10:21:07;96139.47;;;23.92;59.60
48041;BME280;33815;48.386;11.738;2022-09-13T10:23:45;96131.47;;;24.36;60.83
48041;BME280;33815;48.386;11.738;2022-09-13T10:26:17;96131.53;;;24.63;60.03
48041;BME280;33815;48.386;11.738;2022-09-13T10:28:47;96124.03;;;25.20;59.04
48041;BME280;33815;48.386;11.738;2022-09-13T10:31:17;96122.19;;;25.26;57.59
48041;BME280;33815;48.386;11.738;2022-09-13T10:36:21;96127.16;;;24.57;56.11
48041;BME280;33815;48.386;11.738;2022-09-13T10:39:13;96126.91;;;24.59;55.76
48041;BME280;33815;48.386;11.738;2022-09-13T10:41:50;96132.97;;;24.76;57.83
48041;BME280;33815;48.386;11.738;2022-09-13T10:44:38;96111.88;;;24.48;53.20
48041;BME280;33815;48.386;11.738;2022-09-13T10:47:09;96113.31;;;24.83;53.27
48041;BME280;33815;48.386;11.738;2022-09-13T10:49:49;96121.66;;;24.64;56.36
48041;BME280;33815;48.386;11.738;2022-09-13T10:52:24;96103.75;;;24.59;56.03
48041;BME280;33815;48.386;11.738;2022-09-13T10:54:51;96109.53;;;24.29;54.18
48041;BME280;33815;48.386;11.738;2022-09-13T10:57:32;96110.63;;;24.77;56.06
48041;BME280;33815;48.386;11.738;2022-09-13T10:59:58;96111.59;;;24.71;53.71
48041;BME280;33815;48.386;11.738;2022-09-13T11:05:26;96127.00;;;24.64;54.76
48041;BME280;33815;48.386;11.738;2022-09-13T11:08:17;96115.66;;;25.06;54.37
48041;BME280;33815;48.386;11.738;2022-09-13T11:11:05;96118.69;;;25.53;53.53
48041;BME280;33815;48.386;11.738;2022-09-13T11:19:02;96108.81;;;25.16;52.40
48041;BME280;33815;48.386;11.738;2022-09-13T11:27:20;96101.03;;;25.46;53.55
48041;BME280;33815;48.386;11.738;2022-09-13T11:35:35;96104.75;;;25.45;53.33
48041;BME280;33815;48.386;11.738;2022-09-13T11:41:16;96110.19;;;25.61;52.73
48041;BME280;33815;48.386;11.738;2022-09-13T11:46:26;96120.28;;;25.54;53.44
48041;BME280;33815;48.386;11.738;2022-09-13T11:49:20;96110.31;;;25.81;51.92
48041;BME280;33815;48.386;11.738;2022-09-13T11:52:13;96113.94;;;25.22;54.37
48041;BME280;33815;48.386;11.738;2022-09-13T11:57:30;96109.84;;;25.14;51.69
48041;BME280;33815;48.386;11.738;2022-09-13T12:00:00;96110.81;;;25.03;49.44
48041;BME280;33815;48.386;11.738;2022-09-13T12:02:27;96112.25;;;25.11;50.42
48041;BME280;33815;48.386;11.738;2022-09-13T12:05:07;96105.09;;;25.22;52.90
48041;BME280;33815;48.386;11.738;2022-09-13T12:07:48;96099.38;;;25.35;50.41
48041;BME280;33815;48.386;11.738;2022-09-13T12:10:23;96094.84;;;25.03;50.39
48041;BME280;33815;48.386;11.738;2022-09-13T12:12:50;96103.34;;;25.00;53.01
48041;BME280;33815;48.386;11.738;2022-09-13T12:18:03;96106.13;;;25.48;51.30
48041;BME280;33815;48.386;11.738;2022-09-13T12:23:32;96099.00;;;25.64;51.96
48041;BME280;33815;48.386;11.738;2022-09-13T12:26:04;96100.03;;;25.20;50.22
48041;BME280;33815;48.386;11.738;2022-09-13T12:28:44;96081.69;;;24.91;51.08
48041;BME280;33815;48.386;11.738;2022-09-13T12:31:15;96081.09;;;25.22;49.25
48041;BME280;33815;48.386;11.738;2022-09-13T12:33:43;96077.19;;;24.97;50.22
48041;BME280;33815;48.386;11.738;2022-09-13T12:42:21;96078.66;;;25.53;54.30
48041;BME280;33815;48.386;11.738;2022-09-13T12:55:59;96051.56;;;25.76;48.34
48041;BME280;33815;48.386;11.738;2022-09-13T13:01:25;96050.53;;;26.72;50.21
48041;BME280;33815;48.386;11.738;2022-09-13T13:06:35;96029.13;;;27.08;45.70
48041;BME280;33815;48.386;11.738;2022-09-13T13:09:05;96051.81;;;27.51;44.01
48041;BME280;33815;48.386;11.738;2022-09-13T13:11:42;96053.22;;;27.08;47.54
48041;BME280;33815;48.386;11.738;2022-09-13T13:14:29;96053.16;;;27.28;44.97
48041;BME280;33815;48.386;11.738;2022-09-13T13:18:18;96049.75;;;26.87;43.33
48041;BME280;33815;48.386;11.738;2022-09-13T13:20:38;96048.66;;;27.08;43.89
48041;BME280;33815;48.386;11.738;2022-09-13T13:33:52;96030.47;;;28.07;41.29
48041;BME280;33815;48.386;11.738;2022-09-13T13:36:26;96042.72;;;27.52;42.78
48041;BME280;33815;48.386;11.738;2022-09-13T13:38:57;96044.34;;;27.43;44.02
48041;BME280;33815;48.386;11.738;2022-09-13T13:55:01;96016.56;;;28.10;41.05
48041;BME280;33815;48.386;11.738;2022-09-13T13:57:35;96026.25;;;28.00;43.30
48041;BME280;33815;48.386;11.738;2022-09-13T14:00:15;96022.16;;;28.53;41.39
48041;BME280;33815;48.386;11.738;2022-09-13T14:08:34;96024.13;;;27.87;43.97
48041;BME280;33815;48.386;11.738;2022-09-13T14:22:15;96014.91;;;27.48;40.83
48041;BME280;33815;48.386;11.738;2022-09-13T14:24:48;96016.25;;;27.25;43.71
48041;BME280;33815;48.386;11.738;2022-09-13T14:27:18;96014.91;;;27.28;43.19
48041;BME280;33815;48.386;11.738;2022-09-13T14:29:53;96010.19;;;26.78;43.61
48041;BME280;33815;48.386;11.738;2022-09-13T14:32:28;96028.09;;;26.78;47.43
48041;BME280;33815;48.386;11.738;2022-09-13T14:34:59;96017.34;;;26.57;49.28
48041;BME280;33815;48.386;11.738;2022-09-13T14:37:28;96028.59;;;26.54;48.90
48041;BME280;33815;48.386;11.738;2022-09-13T14:42:44;96023.94;;;26.03;54.00
48041;BME280;33815;48.386;11.738;2022-09-13T14:45:20;96036.28;;;26.25;52.72
48041;BME280;33815;48.386;11.738;2022-09-13T14:47:56;96033.69;;;25.82;58.38
48041;BME280;33815;48.386;11.738;2022-09-13T14:50:31;96014.16;;;25.66;59.86
48041;BME280;33815;48.386;11.738;2022-09-13T14:53:03;96023.19;;;25.55;60.10
48041;BME280;33815;48.386;11.738;2022-09-13T14:55:32;96020.44;;;25.39;65.03
48041;BME280;33815;48.386;11.738;2022-09-13T14:58:02;96014.34;;;25.49;65.43
48041;BME280;33815;48.386;11.738;2022-09-13T15:00:30;96001.41;;;25.25;66.56
48041;BME280;33815;48.386;11.738;2022-09-13T15:03:00;95991.44;;;25.10;64.29
48041;BME280;33815;48.386;11.738;2022-09-13T15:05:32;95978.47;;;24.82;66.76
48041;BME280;33815;48.386;11.738;2022-09-13T15:07:59;95993.56;;;24.71;67.46
48041;BME280;33815;48.386;11.738;2022-09-13T15:10:31;95991.03;;;24.59;69.68
48041;BME280;33815;48.386;11.738;2022-09-13T15:15:36;95999.69;;;24.11;73.07
48041;BME280;33815;48.386;11.738;2022-09-13T15:18:23;95985.34;;;24.18;74.11
48041;BME280;33815;48.386;11.738;2022-09-13T15:20:58;95976.84;;;24.48;70.97
48041;BME280;33815;48.386;11.738;2022-09-13T15:23:26;95982.72;;;24.50;72.67
48041;BME280;33815;48.386;11.738;2022-09-13T15:26:11;95979.41;;;24.38;74.71
48041;BME280;33815;48.386;11.738;2022-09-13T15:31:05;95972.09;;;24.23;77.41
48041;BME280;33815;48.386;11.738;2022-09-13T15:33:32;95964.75;;;24.08;76.40
48041;BME280;33815;48.386;11.738;2022-09-13T15:39:14;95968.19;;;23.59;80.85
48041;BME280;33815;48.386;11.738;2022-09-13T15:41:54;95960.78;;;23.61;80.06
48041;BME280;33815;48.386;11.738;2022-09-13T15:44:20;95963.91;;;23.58;79.65
48041;BME280;33815;48.386;11.738;2022-09-13T15:46:53;95954.88;;;23.59;78.83
48041;BME280;33815;48.386;11.738;2022-09-13T15:49:21;95955.38;;;23.56;79.20